KWJF/WJF METAR and TAF weather

Enter ICAO airport designator
Station Type Date Time Source
KWJF METAR 2021/09/24 06:56 UTC NOAA

KWJF 240656Z AUTO 34004KT 10SM CLR 18/04 A2997 RMK AO2 SLP130 T01780039


Station Type Date Time Source
KWJF Decoded METAR 2021/09/24 06:56 UTC NOAA

LANCASTER FOX AIRFIELD, CA, United States (KWJF) 34-44N 118-13W
Sep 24, 2021 - 02:56 AM EDT / 2021.09.24 0656 UTC
Wind: from the NNW (340 degrees) at 5 MPH (4 KT):0
Visibility: 10 mile(s):0
Sky conditions: clear
Temperature: 64.0 F (17.8 C)
Dew Point: 39.0 F (3.9 C)
Relative Humidity: 39%
Pressure (altimeter): 29.97 in. Hg (1014 hPa)
ob: KWJF 240656Z AUTO 34004KT 10SM CLR 18/04 A2997 RMK AO2 SLP130 T01780039
cycle: 7

Station Type Date Time Source
KWJF TAF 2021/09/24 06:51 UTC NOAA

TAF KWJF 240549Z 2406/2506 24006KT P6SM SKC
FM240900 VRB03KT 3SM FU SKC
FM242100 20014G22KT 6SM FU SKC
FM250300 25008KT P6SM SKC

Example: see airport list